Time;durP1;ratioP1;P1;durP2;ratioP2;P2;SDS_P1;SDS_P2;PMS_P1;PMS_P2;Temp;Humidity;BMP_temperature;BMP_pressure;BME280_temperature;BME280_humidity;BME280_pressure;Samples;Min_cycle;Max_cycle;Signal;HPM_P1;HPM_P2
2023/10/16 00:02:23;;;;;;;18.58;6.68;;;;;;;10.13;75.63;102064.19;7356651;19;20026;-66
2023/10/16 00:04:51;;;;;;;17.30;6.47;;;;;;;10.11;74.27;102065.25;7353358;19;20482;-67
2023/10/16 00:07:21;;;;;;;17.77;6.40;;;;;;;10.05;74.15;102068.38;7356799;19;20654;-67
2023/10/16 00:09:53;;;;;;;15.25;6.22;;;;;;;10.05;75.17;102063.97;7350876;19;20010;-66
2023/10/16 00:12:21;;;;;;;16.60;6.35;;;;;;;10.01;74.56;102067.75;7352866;19;20020;-66
2023/10/16 00:14:48;;;;;;;16.65;6.72;;;;;;;10.00;74.60;102066.09;7354383;19;20341;-66
2023/10/16 00:17:15;;;;;;;18.48;6.78;;;;;;;10.01;73.99;102059.03;7354516;19;20011;-67
2023/10/16 00:19:44;;;;;;;16.13;6.07;;;;;;;9.97;74.38;102068.94;7355704;19;21751;-67
2023/10/16 00:22:18;;;;;;;18.25;6.85;;;;;;;9.91;74.30;102073.84;7356717;19;20022;-66
2023/10/16 00:24:48;;;;;;;15.32;6.07;;;;;;;9.93;75.87;102072.78;7355225;19;20058;-66
2023/10/16 00:27:16;;;;;;;15.02;6.10;;;;;;;9.92;75.52;102065.84;7354739;19;20696;-66
2023/10/16 00:29:44;;;;;;;17.92;7.43;;;;;;;9.88;75.38;102062.63;7355637;19;20021;-70
2023/10/16 00:32:11;;;;;;;18.52;6.05;;;;;;;9.86;75.03;102053.16;7354241;19;20105;-67
2023/10/16 00:34:39;;;;;;;15.73;6.07;;;;;;;9.88;75.57;102060.00;7355336;19;20475;-68
2023/10/16 00:37:07;;;;;;;15.23;6.55;;;;;;;9.86;77.34;102055.78;7356975;19;20014;-67
2023/10/16 00:39:36;;;;;;;16.23;6.22;;;;;;;9.83;76.59;102061.28;7355348;19;20010;-66
2023/10/16 00:42:08;;;;;;;15.20;5.95;;;;;;;9.81;78.50;102060.56;7356192;19;20384;-66
2023/10/16 00:44:35;;;;;;;16.27;6.90;;;;;;;9.81;78.49;102058.78;7353092;19;20010;-66
2023/10/16 00:47:07;;;;;;;16.02;6.10;;;;;;;9.78;77.45;102053.75;7356055;19;20018;-66
2023/10/16 00:49:38;;;;;;;17.10;6.10;;;;;;;9.76;78.04;102054.81;7354334;19;20041;-67
2023/10/16 00:52:06;;;;;;;15.35;6.43;;;;;;;9.76;77.11;102054.81;7354419;19;20283;-66
2023/10/16 00:54:39;;;;;;;14.40;5.85;;;;;;;9.75;76.25;102050.53;7356961;19;20454;-67
2023/10/16 00:57:08;;;;;;;16.70;6.57;;;;;;;9.70;75.83;102040.34;7354946;19;20352;-66
2023/10/16 00:59:36;;;;;;;16.05;6.03;;;;;;;9.73;76.71;102044.56;7354482;19;20011;-67
2023/10/16 01:04:34;;;;;;;16.98;6.50;;;;;;;9.69;77.01;102037.88;7351483;19;20042;-66
2023/10/16 01:07:01;;;;;;;13.57;5.45;;;;;;;9.67;76.39;102037.13;7353520;19;20082;-66
2023/10/16 01:09:33;;;;;;;17.98;5.72;;;;;;;9.65;75.65;102039.06;7354593;19;20114;-67
2023/10/16 01:12:12;;;;;;;14.52;5.55;;;;;;;9.62;75.99;102032.22;7346956;19;20022;-67
2023/10/16 01:14:39;;;;;;;14.57;4.65;;;;;;;9.62;75.35;102037.47;7355382;19;20022;-67
2023/10/16 01:17:08;;;;;;;16.30;4.68;;;;;;;9.60;75.64;102038.56;7360979;19;21897;-66
2023/10/16 01:19:36;;;;;;;11.82;4.85;;;;;;;9.56;75.33;102024.81;7356712;19;20628;-66
2023/10/16 01:22:04;;;;;;;12.05;4.55;;;;;;;9.56;74.66;102035.31;7354998;19;20050;-66
2023/10/16 01:24:31;;;;;;;10.02;4.32;;;;;;;9.57;75.38;102041.41;7352968;19;20046;-67
2023/10/16 01:27:06;;;;;;;13.05;5.15;;;;;;;9.60;74.29;102035.94;7349453;19;20317;-66
2023/10/16 01:29:37;;;;;;;10.18;3.65;;;;;;;9.55;73.94;102038.09;7352980;19;20017;-67
2023/10/16 01:32:04;;;;;;;8.00;3.42;;;;;;;9.53;74.32;102037.34;7354671;19;20864;-66
2023/10/16 01:34:32;;;;;;;9.10;2.95;;;;;;;9.50;74.13;102034.97;7352978;19;20063;-67
2023/10/16 01:37:09;;;;;;;9.52;2.88;;;;;;;9.47;73.82;102028.13;7356671;19;21418;-67
2023/10/16 01:39:49;;;;;;;12.15;2.85;;;;;;;9.48;73.68;102027.19;7353643;19;20035;-66
2023/10/16 01:42:18;;;;;;;8.85;3.15;;;;;;;9.48;73.66;102028.97;7352171;19;20010;-66
2023/10/16 01:44:47;;;;;;;10.10;3.05;;;;;;;9.42;73.90;102027.66;7353078;19;20335;-67
2023/10/16 01:47:16;;;;;;;10.55;2.83;;;;;;;9.43;74.76;102027.53;7352966;19;20047;-66
2023/10/16 01:49:49;;;;;;;9.00;2.90;;;;;;;9.42;75.02;102019.75;7352330;19;20089;-66
2023/10/16 01:52:16;;;;;;;9.95;3.28;;;;;;;9.43;75.51;102024.91;7352481;19;20042;-66
2023/10/16 01:54:45;;;;;;;9.20;3.03;;;;;;;9.43;75.88;102022.28;7353270;19;20029;-66
2023/10/16 01:57:13;;;;;;;9.18;3.00;;;;;;;9.41;76.17;102034.69;7351852;19;20010;-67
2023/10/16 01:59:43;;;;;;;8.32;2.78;;;;;;;9.41;75.99;102025.97;7350616;19;20011;-67
2023/10/16 02:02:12;;;;;;;10.05;2.80;;;;;;;9.35;75.31;102019.38;7356364;19;20029;-67
2023/10/16 02:04:41;;;;;;;7.75;2.53;;;;;;;9.32;75.33;102021.41;7352689;19;20527;-67
2023/10/16 02:07:08;;;;;;;6.07;1.80;;;;;;;9.30;74.85;102024.13;7352301;19;20018;-67
2023/10/16 02:09:39;;;;;;;6.95;3.05;;;;;;;9.32;76.15;102014.38;7353673;19;20010;-67
2023/10/16 02:12:14;;;;;;;10.15;2.72;;;;;;;9.35;76.54;102014.13;7348353;19;20014;-67
2023/10/16 02:14:45;;;;;;;7.20;2.08;;;;;;;9.33;74.77;102013.44;7345594;19;20019;-65
2023/10/16 02:17:19;;;;;;;8.13;2.08;;;;;;;9.27;74.08;102000.75;7354824;19;20089;-67
2023/10/16 02:19:47;;;;;;;9.00;2.45;;;;;;;9.27;74.08;101998.13;7336762;19;20019;-67
2023/10/16 02:22:16;;;;;;;9.65;3.45;;;;;;;9.28;74.66;102007.69;7349783;19;20014;-68
2023/10/16 02:24:48;;;;;;;10.73;2.75;;;;;;;9.28;75.41;102002.44;7352779;19;20059;-68
2023/10/16 02:27:18;;;;;;;7.07;1.95;;;;;;;9.30;75.49;101999.66;7353385;19;20499;-68
2023/10/16 02:29:47;;;;;;;8.80;2.20;;;;;;;9.29;75.25;101990.13;7351992;19;20014;-67
2023/10/16 02:32:15;;;;;;;5.93;1.98;;;;;;;9.30;75.67;101987.38;7352780;19;20382;-66
2023/10/16 02:34:42;;;;;;;5.95;2.03;;;;;;;9.30;75.30;101992.63;7346609;19;20019;-66
2023/10/16 02:37:11;;;;;;;8.85;2.15;;;;;;;9.26;75.08;101990.34;7351412;19;20035;-67
2023/10/16 02:39:38;;;;;;;7.05;2.08;;;;;;;9.26;76.91;101978.06;7349273;19;20039;-67
2023/10/16 02:42:14;;;;;;;8.00;2.20;;;;;;;9.28;75.49;101980.59;7358909;19;20036;-67
2023/10/16 02:44:48;;;;;;;8.43;1.70;;;;;;;9.27;73.48;101976.28;7335145;19;20035;-68
2023/10/16 02:47:24;;;;;;;8.77;1.58;;;;;;;9.29;72.95;101980.47;7360121;19;20138;-66
2023/10/16 02:49:51;;;;;;;6.60;1.60;;;;;;;9.28;72.60;101965.66;7355046;19;20010;-67
2023/10/16 02:52:19;;;;;;;7.07;2.28;;;;;;;9.29;72.65;101979.63;7358685;19;20470;-67
2023/10/16 02:54:47;;;;;;;5.80;1.60;;;;;;;9.27;73.09;101963.16;7357665;19;20019;-67
2023/10/16 02:57:14;;;;;;;6.20;2.17;;;;;;;9.31;72.76;101975.09;7356748;19;20018;-67
2023/10/16 02:59:46;;;;;;;7.80;1.85;;;;;;;9.32;72.33;101974.13;7355756;19;20605;-66
2023/10/16 03:02:23;;;;;;;6.97;1.67;;;;;;;9.23;72.54;101954.69;7358767;19;20078;-66
2023/10/16 03:04:56;;;;;;;7.05;2.05;;;;;;;9.21;72.43;101960.97;7357403;19;20030;-67
2023/10/16 03:07:25;;;;;;;9.95;2.13;;;;;;;9.21;72.04;101953.94;7358138;19;20621;-67
2023/10/16 03:09:52;;;;;;;5.57;1.92;;;;;;;9.27;72.62;101960.53;7357040;19;20175;-67
2023/10/16 03:12:20;;;;;;;12.35;1.95;;;;;;;9.22;73.63;101953.00;7354684;19;20014;-66
2023/10/16 03:15:01;;;;;;;7.85;1.70;;;;;;;9.20;73.12;101957.50;7353087;19;20755;-68
2023/10/16 03:19:58;;;;;;;6.22;1.95;;;;;;;9.15;72.92;101943.06;7354156;19;20038;-67
2023/10/16 03:22:25;;;;;;;8.57;1.80;;;;;;;9.15;71.86;101948.31;7361308;19;20029;-66
2023/10/16 03:24:59;;;;;;;5.30;1.50;;;;;;;9.13;71.65;101952.84;7358316;19;20006;-67
2023/10/16 03:27:29;;;;;;;5.50;1.42;;;;;;;9.12;72.10;101959.88;7359140;19;20055;-65
2023/10/16 03:29:58;;;;;;;7.28;1.55;;;;;;;9.14;72.81;101959.78;7356624;19;20018;-68
2023/10/16 03:32:28;;;;;;;7.45;1.67;;;;;;;9.09;72.58;101967.16;7359415;19;20014;-66
2023/10/16 03:34:57;;;;;;;5.10;1.92;;;;;;;9.04;72.47;101956.19;7354210;19;21229;-67
2023/10/16 03:37:24;;;;;;;9.25;3.25;;;;;;;8.99;73.01;101959.13;7358838;19;20044;-66
2023/10/16 03:39:56;;;;;;;5.25;1.88;;;;;;;8.93;73.28;101967.47;7357237;19;20399;-67
2023/10/16 03:42:23;;;;;;;6.22;1.88;;;;;;;8.87;74.38;101962.66;7350187;19;21366;-67
2023/10/16 03:44:50;;;;;;;4.45;1.60;;;;;;;8.82;74.54;101951.69;7354280;19;20596;-66
2023/10/16 03:47:20;;;;;;;5.63;1.65;;;;;;;8.81;74.12;101947.38;7362583;19;20328;-67
2023/10/16 03:49:47;;;;;;;6.20;2.03;;;;;;;8.80;73.98;101945.69;7354035;19;20412;-67
2023/10/16 03:52:14;;;;;;;8.13;1.63;;;;;;;8.76;73.83;101937.22;7358043;19;20704;-67
2023/10/16 03:54:41;;;;;;;6.18;1.83;;;;;;;8.81;73.61;101942.97;7352590;19;20050;-67
2023/10/16 03:57:13;;;;;;;5.65;1.73;;;;;;;8.82;74.23;101933.31;7357559;19;20017;-67
2023/10/16 03:59:44;;;;;;;6.97;1.98;;;;;;;8.89;72.88;101937.13;7354964;19;20076;-67
2023/10/16 04:02:19;;;;;;;7.85;1.70;;;;;;;8.95;71.93;101934.91;7358585;19;20086;-67
2023/10/16 04:04:48;;;;;;;8.85;1.55;;;;;;;8.98;71.25;101934.69;7358187;19;20019;-67
2023/10/16 04:07:16;;;;;;;6.05;1.30;;;;;;;8.98;71.28;101942.56;7358169;19;20014;-66
2023/10/16 04:09:49;;;;;;;9.35;1.55;;;;;;;8.92;71.48;101934.31;7358319;19;20239;-67
2023/10/16 04:12:21;;;;;;;5.88;1.52;;;;;;;8.95;71.60;101934.91;7357399;19;20046;-68
2023/10/16 04:14:55;;;;;;;6.93;1.45;;;;;;;8.93;71.36;101928.94;7352182;19;20019;-67
2023/10/16 04:17:26;;;;;;;6.45;1.55;;;;;;;8.92;70.95;101929.88;7358673;19;20026;-66
2023/10/16 04:19:53;;;;;;;5.85;1.85;;;;;;;8.87;71.33;101931.19;7355245;19;20017;-67
2023/10/16 04:22:24;;;;;;;6.70;1.35;;;;;;;8.83;71.31;101927.97;7358279;19;20358;-66
2023/10/16 04:24:54;;;;;;;6.20;1.10;;;;;;;8.81;71.36;101924.59;7356232;19;20014;-67
2023/10/16 04:27:33;;;;;;;6.82;1.23;;;;;;;8.82;72.02;101917.56;7354578;19;20102;-67
2023/10/16 04:35:02;;;;;;;4.00;1.35;;;;;;;8.78;71.48;101916.97;7354287;19;20018;-67
2023/10/16 04:37:31;;;;;;;4.55;1.20;;;;;;;8.78;71.54;101919.59;7357617;19;20022;-68
2023/10/16 04:50:37;;;;;;;4.45;0.90;;;;;;;8.74;70.07;101905.00;7355028;19;20058;-67
2023/10/16 04:53:09;;;;;;;4.65;1.13;;;;;;;8.75;70.35;101900.59;7350432;19;20018;-67
2023/10/16 06:14:57;;;;;;;7.53;1.40;;;;;;;8.73;70.56;101844.78;7351079;19;20371;-67
2023/10/16 06:17:24;;;;;;;7.05;1.60;;;;;;;8.72;70.50;101837.88;7358508;19;20027;-67
2023/10/16 06:19:51;;;;;;;7.72;1.83;;;;;;;8.73;70.41;101839.56;7357499;19;20088;-67
2023/10/16 06:22:19;;;;;;;6.80;1.48;;;;;;;8.70;70.50;101845.84;7360745;19;20021;-67
2023/10/16 06:24:47;;;;;;;7.20;1.88;;;;;;;8.69;70.84;101840.72;7359868;19;20426;-67
2023/10/16 06:27:19;;;;;;;4.20;1.17;;;;;;;8.71;70.56;101844.91;7358996;19;20039;-68
2023/10/16 06:29:50;;;;;;;3.95;1.38;;;;;;;8.71;69.75;101844.91;7356119;19;20026;-67
2023/10/16 06:32:18;;;;;;;6.15;1.27;;;;;;;8.79;69.13;101847.78;7359579;19;20018;-67
2023/10/16 06:34:51;;;;;;;5.13;1.13;;;;;;;8.76;69.41;101855.03;7357860;19;20379;-67
2023/10/16 06:37:19;;;;;;;;;;;;;;;8.72;69.07;101843.13;7362931;19;20010;-67
2023/10/16 06:39:48;;;;;;;5.60;0.90;;;;;;;8.75;69.34;101853.38;7357834;19;19960;-67
2023/10/16 06:42:18;;;;;;;4.38;1.23;;;;;;;8.70;69.66;101853.72;7357310;19;20025;-67
2023/10/16 06:44:56;;;;;;;3.38;1.10;;;;;;;8.68;69.92;101858.25;7356866;19;20018;-67
2023/10/16 06:47:34;;;;;;;6.07;1.33;;;;;;;8.68;69.79;101855.63;7360536;19;20018;-66
2023/10/16 06:52:57;;;;;;;4.95;1.20;;;;;;;8.73;69.42;101860.53;7359657;19;20086;-67
2023/10/16 06:55:24;;;;;;;6.32;2.13;;;;;;;8.73;70.23;101856.13;7358412;19;20102;-68
2023/10/16 06:57:51;;;;;;;5.72;1.50;;;;;;;8.80;70.06;101859.09;7339615;19;20014;-67
2023/10/16 07:00:32;;;;;;;10.90;2.28;;;;;;;8.80;69.99;101869.59;7351323;19;20101;-66
2023/10/16 07:03:09;;;;;;;5.72;1.40;;;;;;;8.78;69.42;101866.28;7355847;19;20369;-66
2023/10/16 07:05:42;;;;;;;3.92;0.98;;;;;;;8.80;68.96;101857.31;7356944;19;20485;-67
2023/10/16 07:08:17;;;;;;;4.30;1.30;;;;;;;8.75;69.40;101856.84;7356413;19;20850;-68
2023/10/16 07:10:55;;;;;;;6.78;1.35;;;;;;;8.76;69.83;101855.03;7356436;19;20015;-66
2023/10/16 07:13:30;;;;;;;5.85;1.52;;;;;;;8.77;69.47;101862.81;7353669;19;20054;-70
2023/10/16 07:16:00;;;;;;;5.53;1.40;;;;;;;8.79;69.70;101863.50;7357051;19;20046;-67
2023/10/16 07:18:29;;;;;;;6.05;1.25;;;;;;;8.82;69.13;101872.97;7353278;19;20478;-66
2023/10/16 07:21:06;;;;;;;4.88;1.20;;;;;;;8.79;68.48;101873.16;7356654;19;20018;-68
2023/10/16 07:23:44;;;;;;;3.95;0.93;;;;;;;8.69;69.09;101877.44;7357998;19;20385;-67
2023/10/16 07:26:11;;;;;;;5.75;0.82;;;;;;;8.61;68.93;101875.41;7355920;19;20100;-68
2023/10/16 07:28:39;;;;;;;4.22;0.95;;;;;;;8.51;69.11;101867.38;7356371;19;20006;-67
2023/10/16 07:31:10;;;;;;;2.75;0.93;;;;;;;8.46;69.29;101864.25;7354591;19;20019;-66
2023/10/16 07:33:45;;;;;;;5.82;1.10;;;;;;;8.51;69.66;101870.00;7355699;19;20341;-67
2023/10/16 07:36:12;;;;;;;5.90;0.85;;;;;;;8.49;69.39;101871.88;7356328;19;20568;-68
2023/10/16 07:38:40;;;;;;;5.47;0.90;;;;;;;8.47;69.56;101863.31;7357884;19;20010;-67
2023/10/16 07:41:13;;;;;;;3.97;1.00;;;;;;;8.51;69.49;101874.41;7358184;19;20500;-66
2023/10/16 07:43:47;;;;;;;6.53;0.70;;;;;;;8.53;68.85;101875.16;7354799;19;20011;-68
2023/10/16 07:46:19;;;;;;;4.53;0.88;;;;;;;8.56;69.70;101870.50;7357672;19;20014;-67
2023/10/16 07:48:51;;;;;;;3.55;0.80;;;;;;;8.66;69.16;101870.66;7356362;19;20023;-67
2023/10/16 07:51:20;;;;;;;4.38;0.77;;;;;;;8.76;68.70;101865.53;7356934;19;20022;-66
2023/10/16 07:53:49;;;;;;;3.85;1.02;;;;;;;8.77;68.18;101868.06;7339190;19;21454;-67
2023/10/16 07:59:06;;;;;;;2.90;1.00;;;;;;;8.74;68.37;101870.06;7352320;19;20015;-67
2023/10/16 08:04:06;;;;;;;4.43;0.70;;;;;;;8.72;68.34;101864.94;7356523;19;20018;-67
2023/10/16 08:06:39;;;;;;;5.60;0.73;;;;;;;8.72;68.78;101867.56;7356207;19;20058;-66
2023/10/16 08:12:35;;;;;;;11.20;2.97;;;;;;;8.74;68.59;101867.44;7355140;19;20018;-68
2023/10/16 08:14:51;;;;;;;6.03;1.08;;;;;;;8.80;68.68;101867.81;7352156;19;20018;-68
2023/10/16 08:17:23;;;;;;;3.75;0.80;;;;;;;8.83;68.29;101867.59;7356231;19;20060;-67
2023/10/16 08:19:51;;;;;;;6.18;0.90;;;;;;;8.85;69.82;101863.06;7349242;19;20015;-67
2023/10/16 08:22:22;;;;;;;4.78;0.90;;;;;;;8.92;70.19;101856.41;7357087;19;20018;-66
2023/10/16 08:24:59;;;;;;;6.03;1.05;;;;;;;9.01;69.21;101865.34;7353733;19;20334;-67
2023/10/16 08:30:33;;;;;;;6.75;1.00;;;;;;;9.24;66.72;101850.47;7354143;19;20006;-68
2023/10/16 08:33:08;;;;;;;4.93;0.90;;;;;;;9.30;67.07;101855.22;7353386;19;20105;-66
2023/10/16 08:35:39;;;;;;;9.13;1.92;;;;;;;9.34;66.86;101852.28;7353687;19;20011;-66
2023/10/16 08:38:25;;;;;;;4.25;1.00;;;;;;;9.39;67.04;101836.16;7354722;19;20518;-67
2023/10/16 08:41:06;;;;;;;3.42;0.77;;;;;;;9.45;66.90;101839.13;7356126;19;20025;-66
2023/10/16 08:44:27;;;;;;;7.28;1.20;;;;;;;9.53;66.51;101846.41;7354324;19;20569;-66
2023/10/16 08:46:31;;;;;;;5.75;1.10;;;;;;;9.66;64.73;101846.25;7353378;19;20053;-65
2023/10/16 08:49:01;;;;;;;8.85;1.10;;;;;;;9.68;65.25;101844.34;7351809;19;20010;-66
2023/10/16 08:51:29;;;;;;;7.30;1.50;;;;;;;9.70;65.66;101847.72;7353383;19;20031;-66
2023/10/16 08:54:01;;;;;;;9.90;1.08;;;;;;;9.72;65.39;101838.72;7351661;19;20455;-67
2023/10/16 08:56:29;;;;;;;7.38;1.45;;;;;;;9.82;64.58;101846.72;7352609;19;20018;-67
2023/10/16 08:58:57;;;;;;;4.38;1.00;;;;;;;9.84;64.84;101844.81;7348829;19;20122;-67
2023/10/16 09:01:28;;;;;;;6.22;0.85;;;;;;;9.85;65.29;101835.97;7341610;19;20035;-67
2023/10/16 09:04:05;;;;;;;10.57;2.13;;;;;;;9.84;65.81;101832.50;7354664;19;20010;-66
2023/10/16 09:06:37;;;;;;;6.43;2.00;;;;;;;9.86;66.21;101835.84;7354316;19;20019;-67
2023/10/16 09:09:16;;;;;;;13.13;2.10;;;;;;;9.91;65.77;101838.09;7352692;19;20035;-67
2023/10/16 09:11:45;;;;;;;8.38;1.40;;;;;;;10.01;65.99;101838.19;7343457;19;20109;-67
2023/10/16 09:14:20;;;;;;;7.53;2.20;;;;;;;10.09;67.30;101841.88;7348479;19;20040;-67
2023/10/16 09:16:51;;;;;;;9.75;2.17;;;;;;;10.18;65.17;101837.69;7355063;19;20042;-67
2023/10/16 09:19:19;;;;;;;10.60;1.80;;;;;;;10.25;64.17;101838.88;7351897;19;20018;-66
2023/10/16 09:21:52;;;;;;;6.65;1.38;;;;;;;10.29;63.87;101833.22;7350998;19;20031;-67
2023/10/16 09:24:20;;;;;;;3.72;0.70;;;;;;;10.35;63.75;101834.53;7354961;19;20349;-67
2023/10/16 09:26:54;;;;;;;8.45;1.83;;;;;;;10.33;64.61;101827.69;7354659;19;20050;-66
2023/10/16 09:29:25;;;;;;;3.90;1.52;;;;;;;10.35;64.92;101821.38;7355873;19;20730;-67
2023/10/16 09:31:52;;;;;;;16.17;2.40;;;;;;;10.39;64.86;101816.69;7354219;19;20010;-66
2023/10/16 09:34:25;;;;;;;5.63;1.10;;;;;;;10.49;63.63;101815.78;7348516;19;20014;-67
2023/10/16 09:39:40;;;;;;;2.30;0.88;;;;;;;10.52;63.49;101810.25;7354406;19;20089;-67
2023/10/16 09:42:14;;;;;;;8.32;1.45;;;;;;;10.53;64.94;101803.19;7356411;19;20907;-67
2023/10/16 09:44:56;;;;;;;8.65;1.50;;;;;;;10.56;65.11;101795.91;7353133;19;20025;-67
2023/10/16 09:47:27;;;;;;;5.32;1.50;;;;;;;10.67;64.31;101800.25;7355095;19;20538;-66
2023/10/16 09:49:59;;;;;;;6.72;1.40;;;;;;;10.69;64.08;101795.69;7353558;19;20678;-68
2023/10/16 09:52:33;;;;;;;8.95;2.65;;;;;;;10.69;64.17;101798.31;7363165;19;20018;-67
2023/10/16 09:55:00;;;;;;;10.90;1.73;;;;;;;10.70;65.07;101797.38;7361150;19;20431;-67
2023/10/16 09:57:30;;;;;;;10.88;1.77;;;;;;;10.76;65.86;101801.28;7363282;19;21281;-67
2023/10/16 10:02:46;;;;;;;10.85;2.03;;;;;;;10.84;64.88;101801.44;7344102;19;20014;-66
2023/10/16 10:05:21;;;;;;;7.18;1.27;;;;;;;10.91;65.16;101810.50;7354879;19;20340;-66
2023/10/16 10:07:58;;;;;;;11.70;2.10;;;;;;;11.03;64.21;101797.13;7355722;19;20046;-66
2023/10/16 10:13:10;;;;;;;5.15;1.25;;;;;;;11.18;64.56;101794.97;7361331;19;20190;-66
2023/10/16 10:15:45;;;;;;;5.15;1.80;;;;;;;11.28;64.33;101797.63;7357880;19;20038;-66
2023/10/16 10:18:32;;;;;;;8.88;1.33;;;;;;;11.36;62.46;101796.00;7361034;19;20021;-66
2023/10/16 10:21:01;;;;;;;12.25;2.90;;;;;;;11.36;63.33;101806.56;7354719;19;20022;-66
2023/10/16 10:23:32;;;;;;;9.80;2.33;;;;;;;11.42;62.88;101802.56;7359621;19;20069;-65
2023/10/16 10:26:07;;;;;;;8.68;1.65;;;;;;;11.52;61.84;101803.41;7360125;19;20014;-66
2023/10/16 10:28:38;;;;;;;7.25;1.40;;;;;;;11.61;61.51;101804.41;7359964;19;21781;-67
2023/10/16 10:31:05;;;;;;;7.82;1.20;;;;;;;11.65;61.33;101793.44;7358718;19;20707;-66
2023/10/16 10:33:58;;;;;;;6.88;0.90;;;;;;;11.68;60.79;101798.47;7362103;19;20025;-65
2023/10/16 10:36:36;;;;;;;4.68;1.05;;;;;;;11.66;60.47;101794.28;7357872;19;20006;-65
2023/10/16 10:39:22;;;;;;;6.55;1.30;;;;;;;11.73;60.04;101798.09;7357828;19;20022;-67
2023/10/16 10:42:03;;;;;;;8.32;1.95;;;;;;;11.71;60.60;101794.72;7348881;19;20026;-66
2023/10/16 10:44:44;;;;;;;7.57;1.63;;;;;;;11.69;60.92;101791.34;7352129;19;20464;-66
2023/10/16 10:47:24;;;;;;;7.30;1.23;;;;;;;11.76;59.88;101792.53;7362385;19;20455;-66
2023/10/16 10:49:52;;;;;;;7.28;1.20;;;;;;;11.71;60.71;101786.78;7349753;19;20056;-66
2023/10/16 10:52:25;;;;;;;5.82;1.02;;;;;;;11.72;61.24;101778.75;7359687;19;20122;-66
2023/10/16 10:54:59;;;;;;;3.88;1.08;;;;;;;11.78;62.14;101777.41;7357759;19;20089;-66
2023/10/16 10:57:27;;;;;;;6.10;1.50;;;;;;;11.86;60.58;101772.28;7358668;19;20029;-65
2023/10/16 11:00:22;;;;;;;4.93;0.80;;;;;;;11.92;60.72;101775.19;7355218;19;20629;-66
2023/10/16 11:02:52;;;;;;;15.38;1.00;;;;;;;11.97;60.81;101764.25;7359427;19;20011;-66
2023/10/16 11:05:23;;;;;;;6.03;0.90;;;;;;;12.04;60.06;101759.25;7356400;19;20686;-65
2023/10/16 11:10:41;;;;;;;4.72;0.50;;;;;;;12.17;59.76;101757.97;7359264;19;20013;-65
2023/10/16 11:13:10;;;;;;;9.00;1.63;;;;;;;12.15;60.62;101748.53;7355381;19;20486;-65
2023/10/16 11:15:55;;;;;;;7.70;0.90;;;;;;;12.22;61.25;101742.56;7357583;19;20010;-66
2023/10/16 11:18:26;;;;;;;10.63;0.80;;;;;;;12.35;59.04;101740.44;7357085;19;20018;-66
2023/10/16 11:20:54;;;;;;;4.60;0.60;;;;;;;12.38;59.12;101745.47;7355610;19;20036;-67
2023/10/16 11:23:25;;;;;;;5.88;0.60;;;;;;;12.37;59.12;101738.50;7353891;19;20732;-65
2023/10/16 11:25:54;;;;;;;6.32;0.88;;;;;;;12.34;60.25;101728.22;7358717;19;20018;-66
2023/10/16 11:28:28;;;;;;;5.13;0.70;;;;;;;12.36;60.54;101721.00;7356548;19;20014;-65
2023/10/16 11:30:57;;;;;;;5.85;0.98;;;;;;;12.42;60.31;101717.81;7357692;19;20014;-65
2023/10/16 11:34:00;;;;;;;7.55;1.60;;;;;;;12.48;60.35;101712.94;7361738;19;20034;-66
2023/10/16 11:36:28;;;;;;;;;;;;;;;12.57;60.63;101714.69;7360860;19;20014;-65
2023/10/16 11:39:06;;;;;;;3.05;0.60;;;;;;;12.58;60.28;101711.94;7359173;19;19978;-66
2023/10/16 11:41:34;;;;;;;5.13;0.73;;;;;;;12.68;60.28;101701.34;7357519;19;20499;-67
2023/10/16 11:44:05;;;;;;;4.88;0.70;;;;;;;12.83;58.83;101699.88;7359702;19;20163;-66
2023/10/16 11:46:39;;;;;;;3.13;0.60;;;;;;;12.86;58.36;101704.84;7358209;19;20018;-65
2023/10/16 11:51:55;;;;;;;2.75;0.80;;;;;;;12.96;58.50;101707.44;7357110;19;20015;-65
2023/10/16 11:54:23;;;;;;;3.80;0.60;;;;;;;12.97;57.99;101690.63;7352732;19;20353;-66
2023/10/16 11:56:55;;;;;;;2.53;0.52;;;;;;;13.00;58.13;101693.00;7358431;19;20093;-66
2023/10/16 11:59:26;;;;;;;3.40;0.50;;;;;;;13.00;58.69;101695.63;7356766;19;20018;-66
2023/10/16 12:01:59;;;;;;;2.28;0.63;;;;;;;13.04;58.42;101691.72;7358439;19;20019;-66
2023/10/16 12:04:30;;;;;;;2.50;0.65;;;;;;;13.10;57.87;101691.97;7354619;19;20026;-67
2023/10/16 12:06:59;;;;;;;4.20;0.65;;;;;;;13.14;58.94;101703.94;7337154;19;20014;-65
2023/10/16 12:09:34;;;;;;;5.10;0.60;;;;;;;13.16;59.83;101695.84;7357053;19;20423;-66
2023/10/16 12:12:05;;;;;;;5.95;1.10;;;;;;;13.21;59.38;101690.94;7352592;19;21334;-66
2023/10/16 12:14:38;;;;;;;6.28;0.90;;;;;;;13.27;58.95;101698.28;7353589;19;20363;-65
2023/10/16 12:17:06;;;;;;;3.13;0.40;;;;;;;13.30;58.19;101689.22;7353975;19;20710;-66
2023/10/16 12:19:34;;;;;;;7.47;1.10;;;;;;;13.38;59.36;101694.59;7356572;19;20022;-66
2023/10/16 12:22:01;;;;;;;7.53;1.00;;;;;;;13.47;59.38;101691.88;7352492;19;20038;-65
2023/10/16 12:24:28;;;;;;;5.38;0.80;;;;;;;13.55;59.89;101691.97;7353389;19;20099;-65
2023/10/16 12:26:55;;;;;;;12.15;3.08;;;;;;;13.61;60.14;101696.63;7355454;19;20010;-66
2023/10/16 12:29:22;;;;;;;8.23;0.80;;;;;;;13.70;60.17;101698.41;7354541;19;20020;-66
2023/10/16 12:31:49;;;;;;;5.20;0.70;;;;;;;13.72;59.76;101687.66;7354558;19;20054;-66
2023/10/16 12:34:17;;;;;;;3.00;0.68;;;;;;;13.81;59.44;101680.63;7354145;19;20044;-65
2023/10/16 12:36:49;;;;;;;5.72;0.73;;;;;;;13.88;58.48;101677.22;7352219;19;21986;-65
2023/10/16 12:39:16;;;;;;;3.63;0.50;;;;;;;13.91;58.31;101676.09;7358106;19;20470;-65
2023/10/16 12:41:44;;;;;;;4.63;0.40;;;;;;;13.83;58.27;101665.41;7355552;19;20018;-66
2023/10/16 12:44:11;;;;;;;6.57;0.40;;;;;;;13.80;58.49;101665.75;7355069;19;21810;-65
2023/10/16 12:46:39;;;;;;;5.22;0.57;;;;;;;13.80;58.17;101661.28;7353947;19;20401;-66
2023/10/16 12:49:07;;;;;;;4.97;0.60;;;;;;;13.79;58.70;101662.25;7350531;19;20078;-65
2023/10/16 12:51:34;;;;;;;4.55;0.60;;;;;;;13.70;58.27;101657.88;7353249;19;20018;-66
2023/10/16 12:54:03;;;;;;;3.40;0.70;;;;;;;13.70;59.05;101649.97;7355386;19;20025;-66
2023/10/16 12:56:31;;;;;;;4.95;0.75;;;;;;;13.70;59.53;101647.31;7354657;19;20041;-65
2023/10/16 12:58:59;;;;;;;4.70;0.50;;;;;;;13.70;59.53;101648.16;7352542;19;20029;-66
2023/10/16 13:01:26;;;;;;;4.38;0.50;;;;;;;13.67;59.65;101643.13;7352646;19;20037;-67
2023/10/16 13:03:59;;;;;;;4.15;0.77;;;;;;;13.68;62.74;101644.81;7330978;19;20010;-67
2023/10/16 13:06:30;;;;;;;3.42;0.60;;;;;;;13.71;63.40;101636.56;7352941;19;20021;-66
2023/10/16 13:08:57;;;;;;;4.40;0.60;;;;;;;13.73;64.40;101640.88;7351343;19;20044;-67
2023/10/16 13:11:24;;;;;;;3.22;1.52;;;;;;;13.77;64.40;101631.63;7356341;19;20031;-66
2023/10/16 13:13:55;;;;;;;3.80;0.70;;;;;;;13.77;61.24;101627.19;7354284;19;20015;-67
2023/10/16 13:16:26;;;;;;;5.43;0.52;;;;;;;13.78;61.46;101643.88;7351646;19;20545;-64
2023/10/16 13:18:57;;;;;;;6.22;0.57;;;;;;;13.76;60.47;101627.34;7354901;19;20021;-66
2023/10/16 13:21:34;;;;;;;11.95;1.13;;;;;;;13.74;59.94;101635.44;7354498;19;20015;-66
2023/10/16 13:24:06;;;;;;;5.28;0.68;;;;;;;13.79;58.77;101633.16;7346787;19;20377;-65
2023/10/16 13:26:36;;;;;;;3.97;0.40;;;;;;;13.77;60.09;101634.28;7354238;19;21302;-65
2023/10/16 13:29:08;;;;;;;3.55;0.47;;;;;;;13.75;60.39;101633.63;7355482;19;20134;-65
2023/10/16 13:31:36;;;;;;;4.88;0.50;;;;;;;13.79;60.02;101621.75;7353961;19;20022;-65
2023/10/16 13:34:04;;;;;;;5.00;0.30;;;;;;;13.85;59.31;101619.31;7356704;19;20029;-68
2023/10/16 13:36:35;;;;;;;4.20;0.50;;;;;;;13.81;60.54;101615.34;7353537;19;20014;-66
2023/10/16 13:39:10;;;;;;;4.85;0.60;;;;;;;13.77;60.18;101608.66;7356916;19;20010;-67
2023/10/16 13:41:50;;;;;;;3.58;0.55;;;;;;;13.79;59.99;101612.00;7353482;19;20015;-66
2023/10/16 13:44:29;;;;;;;3.65;0.50;;;;;;;13.77;60.23;101599.91;7352464;19;20006;-66
2023/10/16 13:46:59;;;;;;;5.88;0.45;;;;;;;13.83;59.96;101592.19;7354221;19;20015;-66
2023/10/16 13:49:28;;;;;;;3.85;0.77;;;;;;;13.82;61.60;101598.44;7332689;19;20037;-67
2023/10/16 13:51:57;;;;;;;3.15;0.40;;;;;;;13.81;61.69;101601.28;7356657;19;20698;-66
2023/10/16 13:54:24;;;;;;;5.03;0.40;;;;;;;13.77;61.42;101589.31;7353618;19;20011;-66
2023/10/16 13:56:52;;;;;;;3.80;0.55;;;;;;;13.79;61.89;101582.91;7352445;19;20018;-65